Lanark, Illinois
Current Conditions -  °F | °C
As of 5:55 PM on Wednesday 22 Oct 2014 (Local Time) from KSFY Reporting Station
Clear Clear  
Wind Chill: 54°   Ceiling: Unl
Heat Index: 54°   Visibility: 10mi
Dew Point: 36°   Wind: 7mph
Humidity: 50%   Direction: 140°SE
Pressure: 30.22"   Gusts: NA
Location:  42.1°N, 89.83°W
Report Text: KSFY 222255Z AUTO 14006KT 10SM CLR 12/02 A3022 RMK AO2 T01230021
Loading
Personal Weather Stations






























Interactive Weather Map
Tropical Storm Tracking
New forecast layout! Learn more

10-Day Weather Forecast

Advertisements
Track Severe Weather on mobile